Time,TemperatureF,DewpointF,PressureIn,WindDirection,WindDirectionDegrees,WindSpeedMPH,WindSpeedGustMPH,Humidity,HourlyPrecipIn,Conditions,Clouds,dailyrainin,SoftwareType,DateUTC
2013-03-11 00:00:00,30.1,24.7,30.11,ENE,59,7.0,16.0,80,0.00,RA,,0.00,WeatherDisplay:10.37,2013-03-11 00:00:00,
2013-03-11 00:15:00,29.9,24.8,30.12,NE,50,3.0,10.0,81,0.00,CLR,,0.00,WeatherDisplay:10.37,2013-03-11 00:15:00,
2013-03-11 00:30:00,30.3,25.5,30.12,NE,46,7.0,21.0,82,0.00,CLR,,0.00,WeatherDisplay:10.37,2013-03-11 00:30:00,
2013-03-11 00:45:00,29.8,25.6,30.12,NE,49,7.0,20.0,84,0.00,CLR,,0.00,WeatherDisplay:10.37,2013-03-11 00:45:00,
2013-03-11 01:00:00,29.4,24.6,30.11,NE,37,5.0,14.0,82,0.00,CLR,,0.00,WeatherDisplay:10.37,2013-03-11 01:00:00,
2013-03-11 01:15:00,29.1,24.0,30.11,NE,34,6.0,13.0,81,0.00,CLR,,0.00,WeatherDisplay:10.37,2013-03-11 01:15:00,
2013-03-11 01:30:00,28.9,23.8,30.12,NE,36,7.0,14.0,81,0.00,CLR,,0.00,WeatherDisplay:10.37,2013-03-11 01:30:00,
2013-03-11 01:45:00,29.0,23.6,30.12,NE,34,9.0,20.0,80,0.00,CLR,,0.00,WeatherDisplay:10.37,2013-03-11 01:45:00,
2013-03-11 02:00:00,28.7,23.3,30.12,NE,41,15.0,22.0,80,0.00,CLR,,0.00,WeatherDisplay:10.37,2013-03-11 02:00:00,
2013-03-11 02:15:00,27.8,24.1,30.13,NE,38,13.0,22.0,86,0.00,CLR,,0.00,WeatherDisplay:10.37,2013-03-11 02:15:00,
2013-03-11 02:30:00,27.2,24.7,30.12,NE,43,1.0,20.0,90,0.00,CLR,,0.00,WeatherDisplay:10.37,2013-03-11 02:30:00,
2013-03-11 02:45:00,27.3,24.5,30.12,NNE,32,8.0,14.0,89,0.00,CLR,,0.00,WeatherDisplay:10.37,2013-03-11 02:45:00,
2013-03-11 03:00:00,27.3,23.9,30.12,NE,42,3.0,12.0,87,0.00,CLR,,0.00,WeatherDisplay:10.37,2013-03-11 03:00:00,
2013-03-11 03:15:00,27.6,24.0,30.12,NNE,15,6.0,12.0,86,0.00,CLR,,0.00,WeatherDisplay:10.37,2013-03-11 03:15:00,
2013-03-11 03:30:00,27.3,23.7,30.12,NNE,16,6.0,12.0,86,0.00,CLR,,0.00,WeatherDisplay:10.37,2013-03-11 03:30:00,
2013-03-11 03:45:00,27.0,24.2,30.12,NNE,14,7.0,18.0,89,0.00,CLR,,0.00,WeatherDisplay:10.37,2013-03-11 03:45:00,
2013-03-11 04:00:00,26.5,23.9,30.12,NNE,13,5.0,21.0,90,0.00,CLR,,0.00,WeatherDisplay:10.37,2013-03-11 04:00:00,
2013-03-11 04:15:00,26.1,23.3,30.12,NNE,28,5.0,10.0,89,0.00,CLR,,0.00,WeatherDisplay:10.37,2013-03-11 04:15:00,
2013-03-11 04:30:00,26.3,23.5,30.12,NNE,21,8.0,14.0,89,0.00,CLR,,0.00,WeatherDisplay:10.37,2013-03-11 04:30:00,
2013-03-11 04:45:00,26.9,23.8,30.13,NE,38,6.0,15.0,88,0.00,CLR,,0.00,WeatherDisplay:10.37,2013-03-11 04:45:00,
2013-03-11 05:00:00,27.3,24.2,30.12,NNE,32,1.0,12.0,88,0.00,CLR,,0.00,WeatherDisplay:10.37,2013-03-11 05:00:00,
2013-03-11 05:15:00,27.3,24.2,30.13,NNE,30,6.0,14.0,88,0.00,CLR,,0.00,WeatherDisplay:10.37,2013-03-11 05:15:00,
2013-03-11 05:30:00,26.8,24.3,30.13,NNE,19,3.0,15.0,90,0.00,CLR,,0.00,WeatherDisplay:10.37,2013-03-11 05:30:00,
2013-03-11 05:45:00,26.2,23.4,30.12,North,9,5.0,14.0,89,0.00,CLR,,0.00,WeatherDisplay:10.37,2013-03-11 05:45:00,
2013-03-11 06:00:00,25.8,22.5,30.12,North,11,7.0,16.0,87,0.00,CLR,,0.00,WeatherDisplay:10.37,2013-03-11 06:00:00,
2013-03-11 06:15:00,25.4,22.1,30.12,NE,34,5.0,13.0,87,0.00,CLR,,0.00,WeatherDisplay:10.37,2013-03-11 06:15:00,
2013-03-11 06:30:00,25.4,22.1,30.12,North,357,3.0,13.0,87,0.00,CLR,,0.00,WeatherDisplay:10.37,2013-03-11 06:30:00,
2013-03-11 06:45:00,26.0,22.3,30.13,NE,41,7.0,13.0,86,0.00,CLR,,0.00,WeatherDisplay:10.37,2013-03-11 06:45:00,
2013-03-11 07:00:00,26.2,22.6,30.14,NNE,32,2.0,16.0,86,0.00,CLR,,0.00,WeatherDisplay:10.37,2013-03-11 07:00:00,
2013-03-11 07:15:00,26.0,23.5,30.14,NNE,29,5.0,18.0,90,0.00,CLR,,0.00,WeatherDisplay:10.37,2013-03-11 07:15:00,
2013-03-11 07:30:00,26.4,23.9,30.14,NNE,26,7.0,13.0,90,0.00,CLR,,0.00,WeatherDisplay:10.37,2013-03-11 07:30:00,
2013-03-11 07:45:00,26.2,23.6,30.14,NNE,19,2.0,14.0,90,0.00,CLR,,0.00,WeatherDisplay:10.37,2013-03-11 07:45:00,
2013-03-11 08:00:00,27.0,23.9,30.14,NNE,24,3.0,10.0,88,0.00,CLR,,0.00,WeatherDisplay:10.37,2013-03-11 08:00:00,
2013-03-11 08:15:00,27.3,23.1,30.14,NNE,12,7.0,15.0,84,0.00,CLR,,0.00,WeatherDisplay:10.37,2013-03-11 08:15:00,
2013-03-11 08:30:00,26.7,21.9,30.14,NNE,18,5.0,15.0,82,0.00,CLR,,0.00,WeatherDisplay:10.37,2013-03-11 08:30:00,
2013-03-11 08:45:00,26.9,22.5,30.14,NNE,14,5.0,16.0,83,0.00,CLR,,0.00,WeatherDisplay:10.37,2013-03-11 08:45:00,
2013-03-11 09:00:00,27.9,23.4,30.15,NE,37,6.0,14.0,83,0.00,CLR,,0.00,WeatherDisplay:10.37,2013-03-11 09:00:00,
2013-03-11 09:15:00,29.2,24.3,30.14,NNE,30,5.0,20.0,82,0.00,CLR,,0.00,WeatherDisplay:10.37,2013-03-11 09:15:00,
2013-03-11 09:30:00,30.0,24.3,30.14,NE,42,6.0,14.0,79,0.00,CLR,,0.00,WeatherDisplay:10.37,2013-03-11 09:30:00,
2013-03-11 09:45:00,29.8,23.5,30.15,NNE,33,1.0,18.0,77,0.00,CLR,,0.00,WeatherDisplay:10.37,2013-03-11 09:45:00,
2013-03-11 10:00:00,29.6,23.0,30.15,NNE,26,13.0,24.0,76,0.00,CLR,,0.00,WeatherDisplay:10.37,2013-03-11 10:00:00,
2013-03-11 10:15:00,29.5,25.0,30.15,NNE,31,6.0,23.0,83,0.00,CLR,,0.00,WeatherDisplay:10.37,2013-03-11 10:15:00,
2013-03-11 10:30:00,31.0,24.9,30.14,NE,42,7.0,20.0,78,0.00,CLR,,0.00,WeatherDisplay:10.37,2013-03-11 10:30:00,
2013-03-11 10:45:00,32.1,24.8,30.14,NE,34,7.0,14.0,74,0.00,CLR,,0.00,WeatherDisplay:10.37,2013-03-11 10:45:00,
2013-03-11 11:00:00,31.0,24.0,30.14,NNE,27,5.0,17.0,75,0.00,CLR,,0.00,WeatherDisplay:10.37,2013-03-11 11:00:00,
2013-03-11 11:15:00,31.2,23.6,30.15,NE,45,3.0,15.0,73,0.00,CLR,,0.00,WeatherDisplay:10.37,2013-03-11 11:15:00,
2013-03-11 11:30:00,32.1,24.4,30.14,NE,37,3.0,14.0,73,0.00,CLR,,0.00,WeatherDisplay:10.37,2013-03-11 11:30:00,
2013-03-11 11:45:00,32.8,24.7,30.14,NE,34,10.0,17.0,72,0.00,CLR,,0.00,WeatherDisplay:10.37,2013-03-11 11:45:00,
2013-03-11 12:00:00,31.3,25.5,30.15,NE,34,5.0,17.0,79,0.00,CLR,,0.00,WeatherDisplay:10.37,2013-03-11 12:00:00,
2013-03-11 12:15:00,31.0,26.4,30.14,NE,42,10.0,18.0,83,0.00,CLR,,0.00,WeatherDisplay:10.37,2013-03-11 12:15:00,
2013-03-11 12:30:00,31.9,26.4,30.14,NE,44,10.0,21.0,80,0.00,CLR,,0.00,WeatherDisplay:10.37,2013-03-11 12:30:00,
2013-03-11 12:45:00,32.3,25.9,30.15,NE,46,7.0,16.0,77,0.00,CLR,,0.00,WeatherDisplay:10.37,2013-03-11 12:45:00,
2013-03-11 13:00:00,31.0,26.4,30.14,NE,41,7.0,22.0,83,0.00,CLR,,0.00,WeatherDisplay:10.37,2013-03-11 13:00:00,
2013-03-11 13:15:00,33.1,27.0,30.14,NE,45,8.0,17.0,78,0.00,CLR,,0.00,WeatherDisplay:10.37,2013-03-11 13:15:00,
2013-03-11 13:30:00,30.9,27.2,30.15,NE,44,9.0,26.0,86,0.00,CLR,,0.00,WeatherDisplay:10.37,2013-03-11 13:30:00,
2013-03-11 13:45:00,31.3,29.0,30.14,NNE,19,2.0,16.0,91,0.00,CLR,,0.00,WeatherDisplay:10.37,2013-03-11 13:45:00,
2013-03-11 14:00:00,31.2,27.5,30.14,NE,35,6.0,17.0,86,0.00,CLR,,0.00,WeatherDisplay:10.37,2013-03-11 14:00:00,
2013-03-11 14:15:00,32.4,28.1,30.14,NNE,32,7.0,15.0,84,0.00,CLR,,0.00,WeatherDisplay:10.37,2013-03-11 14:15:00,
2013-03-11 14:30:00,33.4,27.3,30.14,NE,39,7.0,17.0,78,0.00,CLR,,0.00,WeatherDisplay:10.37,2013-03-11 14:30:00,
2013-03-11 14:45:00,34.1,24.6,30.14,NE,41,14.0,22.0,68,0.00,CLR,,0.00,WeatherDisplay:10.37,2013-03-11 14:45:00,
2013-03-11 15:00:00,34.2,22.1,30.14,NE,43,8.0,24.0,61,0.00,CLR,,0.00,WeatherDisplay:10.37,2013-03-11 15:00:00,
2013-03-11 15:15:00,34.7,22.6,30.13,NE,42,10.0,20.0,61,0.00,CLR,,0.00,WeatherDisplay:10.37,2013-03-11 15:15:00,
2013-03-11 15:30:00,34.2,22.5,30.13,NE,46,8.0,18.0,62,0.00,CLR,,0.00,WeatherDisplay:10.37,2013-03-11 15:30:00,
2013-03-11 15:45:00,34.5,23.6,30.13,NE,47,9.0,18.0,64,0.00,CLR,,0.00,WeatherDisplay:10.37,2013-03-11 15:45:00,
2013-03-11 16:00:00,33.9,23.0,30.13,NE,51,10.0,18.0,64,0.00,CLR,,0.00,WeatherDisplay:10.37,2013-03-11 16:00:00,
2013-03-11 16:15:00,33.5,21.5,30.13,NE,40,13.0,18.0,61,0.00,CLR,,0.00,WeatherDisplay:10.37,2013-03-11 16:15:00,
2013-03-11 16:30:00,33.9,20.7,30.13,NE,51,13.0,23.0,58,0.00,CLR,,0.00,WeatherDisplay:10.37,2013-03-11 16:30:00,
2013-03-11 16:45:00,33.5,21.1,30.13,NE,39,7.0,18.0,60,0.00,CLR,,0.00,WeatherDisplay:10.37,2013-03-11 16:45:00,
2013-03-11 17:00:00,33.8,20.9,30.13,NE,43,10.0,20.0,59,0.00,CLR,,0.00,WeatherDisplay:10.37,2013-03-11 17:00:00,
2013-03-11 17:15:00,33.9,21.1,30.13,NE,39,10.0,20.0,59,0.00,CLR,,0.00,WeatherDisplay:10.37,2013-03-11 17:15:00,
2013-03-11 17:30:00,33.3,20.5,30.14,NE,36,6.0,17.0,59,0.00,CLR,,0.00,WeatherDisplay:10.37,2013-03-11 17:30:00,
2013-03-11 17:45:00,32.8,21.2,30.14,NE,34,2.0,14.0,62,0.00,CLR,,0.00,WeatherDisplay:10.37,2013-03-11 17:45:00,
2013-03-11 18:00:00,32.3,21.1,30.14,NE,38,5.0,8.0,63,0.00,CLR,,0.00,WeatherDisplay:10.37,2013-03-11 18:00:00,
2013-03-11 18:15:00,31.9,21.1,30.14,NE,46,2.0,12.0,64,0.00,CLR,,0.00,WeatherDisplay:10.37,2013-03-11 18:15:00,
2013-03-11 18:30:00,31.6,21.5,30.14,NE,39,3.0,12.0,66,0.00,CLR,,0.00,WeatherDisplay:10.37,2013-03-11 18:30:00,
2013-03-11 18:45:00,31.2,21.8,30.14,NE,43,1.0,8.0,68,0.00,CLR,,0.00,WeatherDisplay:10.37,2013-03-11 18:45:00,
2013-03-11 19:00:00,30.9,21.9,30.14,NE,40,2.0,7.0,69,0.00,CLR,,0.00,WeatherDisplay:10.37,2013-03-11 19:00:00,
2013-03-11 19:15:00,30.8,21.8,30.14,NE,54,2.0,8.0,69,0.00,CLR,,0.00,WeatherDisplay:10.37,2013-03-11 19:15:00,
2013-03-11 19:30:00,30.6,21.6,30.14,NNE,13,2.0,7.0,69,0.00,CLR,,0.00,WeatherDisplay:10.37,2013-03-11 19:30:00,
2013-03-11 19:45:00,30.4,21.4,30.15,NNE,18,0.0,7.0,69,0.00,CLR,,0.00,WeatherDisplay:10.37,2013-03-11 19:45:00,
2013-03-11 22:30:00,27.9,20.7,30.14,North,1,2.0,12.0,74,0.00,CLR,,0.00,WeatherDisplay:10.37,2013-03-11 22:30:00,
2013-03-11 22:45:00,27.7,20.5,30.14,North,351,5.0,9.0,74,0.00,CLR,,0.00,WeatherDisplay:10.37,2013-03-11 22:45:00,
2013-03-11 23:00:00,27.6,20.4,30.14,NNW,340,2.0,6.0,74,0.00,CLR,,0.00,WeatherDisplay:10.37,2013-03-11 23:00:00,
2013-03-11 23:15:00,27.5,20.6,30.14,NNE,12,5.0,7.0,75,0.00,CLR,,0.00,WeatherDisplay:10.37,2013-03-11 23:15:00,
2013-03-11 23:30:00,27.6,20.7,30.13,NNE,14,5.0,8.0,75,0.00,CLR,,0.00,WeatherDisplay:10.37,2013-03-11 23:30:00,
2013-03-11 23:45:00,27.6,20.7,30.13,NNE,18,5.0,9.0,75,0.00,CLR,,0.00,WeatherDisplay:10.37,2013-03-11 23:45:00,